Time;durP1;ratioP1;P1;durP2;ratioP2;P2;SDS_P1;SDS_P2;PMS_P1;PMS_P2;Temp;Humidity;BMP_temperature;BMP_pressure;BME280_temperature;BME280_humidity;BME280_pressure;Samples;Min_cycle;Max_cycle;Signal;HPM_P1;HPM_P2
2022/06/04 00:02:27;;;;;;;;;;;20.20;73.20;;;19.50;68.35;96718.84;4266618;33;20048;-86
2022/06/04 00:04:55;;;;;;;;;;;20.20;73.20;;;19.51;68.39;96721.31;4290698;33;20221;-86
2022/06/04 00:07:24;;;;;;;;;;;20.20;73.20;;;19.53;68.18;96715.44;4266597;33;20428;-86
2022/06/04 00:15:32;;;;;;;;;;;20.20;73.10;;;19.51;68.11;96715.75;4290190;33;20357;-87
2022/06/04 00:18:01;;;;;;;;;;;20.20;73.00;;;19.49;68.13;96718.03;4266637;33;20014;-87
2022/06/04 00:20:30;;;;;;;;;;;20.20;73.10;;;19.48;68.03;96708.06;4265901;33;19909;-86
2022/06/04 00:23:00;;;;;;;;;;;20.20;73.00;;;19.49;68.04;96706.91;4266391;33;19918;-87
2022/06/04 00:25:29;;;;;;;;;;;20.20;72.90;;;19.49;68.21;96715.25;4290516;32;19912;-86
2022/06/04 00:28:00;;;;;;;;;;;20.20;73.00;;;19.49;67.94;96712.47;4291620;33;19901;-87
2022/06/04 00:30:28;;;;;;;;;;;20.20;73.00;;;19.48;68.11;96708.06;4265860;33;20093;-86
2022/06/04 00:32:57;;;;;;;;;;;20.20;72.80;;;19.47;67.96;96715.59;4266336;33;19901;-86
2022/06/04 00:35:26;;;;;;;;;;;20.20;72.80;;;19.47;67.88;96707.25;4290427;33;20148;-86
2022/06/04 00:37:55;;;;;;;;;;;20.20;72.80;;;19.48;67.82;96710.84;4290488;33;20119;-86
2022/06/04 00:40:34;;;;;;;;;;;20.20;72.80;;;19.47;68.12;96706.41;4265817;33;20236;-86
2022/06/04 00:43:04;;;;;;;;;;;20.20;73.60;;;19.46;67.70;96711.16;4290463;33;19908;-86
2022/06/04 00:46:28;;;;;;;;;;;20.20;72.70;;;19.45;67.76;96712.28;4268750;33;19947;-86
2022/06/04 00:48:57;;;;;;;;;;;20.20;72.60;;;19.45;67.69;96709.53;4269002;33;19908;-86
2022/06/04 00:51:25;;;;;;;;;;;20.20;72.60;;;19.46;67.75;96713.09;4267711;33;20048;-87
2022/06/04 00:53:55;;;;;;;;;;;20.10;72.60;;;19.43;68.03;96700.69;4268765;33;20156;-85
2022/06/04 00:56:30;;;;;;;;;;;20.20;72.60;;;19.45;67.94;96703.97;4268775;33;19902;-86
2022/06/04 00:59:12;;;;;;;;;;;20.20;72.60;;;19.45;67.73;96703.13;4292907;33;20029;-85
2022/06/04 01:01:47;;;;;;;;;;;20.20;72.50;;;19.44;67.82;96696.78;4292173;33;19916;-86
2022/06/04 01:07:06;;;;;;;;;;;20.20;72.50;;;19.43;67.56;96697.91;4291471;33;20092;-86
2022/06/04 01:09:49;;;;;;;;;;;20.10;72.40;;;19.43;67.71;96702.63;4292792;33;20128;-86
2022/06/04 01:12:33;;;;;;;;;;;20.20;72.40;;;19.43;67.52;96694.28;4292316;33;20159;-85
2022/06/04 01:15:15;;;;;;;;;;;20.10;72.30;;;19.41;67.65;96694.63;4268625;33;19901;-86
2022/06/04 01:17:54;;;;;;;;;;;20.10;72.40;;;19.42;67.70;96692.69;4292639;33;19901;-86
2022/06/04 01:20:32;;;;;;;;;;;20.10;72.40;;;19.41;67.63;96691.03;4267982;33;19902;-86
2022/06/04 01:23:43;;;;;;;;;;;20.10;72.30;;;19.40;67.34;96683.84;4292468;33;19901;-86
2022/06/04 01:26:41;;;;;;;;;;;20.10;72.30;;;19.41;67.30;96682.72;4268468;33;19901;-86
2022/06/04 01:29:15;;;;;;;;;;;20.10;72.20;;;19.39;67.31;96677.44;4268515;33;20341;-86
2022/06/04 01:31:47;;;;;;;;;;;20.10;72.30;;;19.38;67.30;96669.44;4267864;33;19902;-86
2022/06/04 01:34:20;;;;;;;;;;;20.10;72.20;;;19.38;67.44;96664.69;4293513;33;19909;-86
2022/06/04 01:36:51;;;;;;;;;;;20.10;72.10;;;19.38;67.22;96670.25;4268203;33;19902;-87
2022/06/04 01:39:23;;;;;;;;;;;20.10;72.10;;;19.39;67.31;96671.09;4268438;33;19902;-87
2022/06/04 01:41:54;;;;;;;;;;;20.10;72.10;;;19.37;67.27;96665.84;4267672;33;20106;-86
2022/06/04 01:44:24;;;;;;;;;;;20.10;72.10;;;19.37;67.21;96670.59;4267704;33;19946;-86
2022/06/04 01:46:55;;;;;;;;;;;20.10;72.10;;;19.37;67.37;96678.91;4292040;33;20115;-86
2022/06/04 01:49:31;;;;;;;;;;;20.10;72.10;;;19.37;67.10;96667.81;4268186;33;20020;-85
2022/06/04 01:52:01;;;;;;;;;;;20.10;72.10;;;19.36;67.11;96663.38;4267436;33;20128;-87
2022/06/04 01:54:33;;;;;;;;;;;20.00;71.90;;;19.36;67.37;96663.38;4292422;33;20272;-87
2022/06/04 01:57:09;;;;;;;;;;;20.10;72.00;;;19.35;67.20;96658.97;4291689;33;19908;-87
2022/06/04 01:59:41;;;;;;;;;;;20.10;72.00;;;19.35;67.29;96658.97;4292328;32;20074;-87
2022/06/04 02:02:14;;;;;;;;;;;20.10;72.00;;;19.35;67.28;96661.75;4267540;33;20263;-87
2022/06/04 02:04:47;;;;;;;;;;;20.10;72.00;;;19.35;67.23;96656.19;4293134;33;20420;-86
2022/06/04 02:07:32;;;;;;;;;;;20.00;71.80;;;19.35;67.25;96667.31;4267714;33;19924;-86
2022/06/04 02:10:06;;;;;;;;;;;20.00;71.70;;;19.34;66.90;96663.72;4267467;33;19901;-86
2022/06/04 02:12:36;;;;;;;;;;;20.10;71.80;;;19.34;66.80;96673.97;4267929;33;19916;-86
2022/06/04 02:15:06;;;;;;;;;;;20.00;71.70;;;19.33;67.12;96673.19;4291957;33;19902;-86
2022/06/04 02:17:35;;;;;;;;;;;20.00;71.70;;;19.32;66.91;96672.34;4267356;33;19902;-86
2022/06/04 02:20:04;;;;;;;;;;;20.00;71.60;;;19.32;66.90;96677.09;4266382;33;20067;-86
2022/06/04 02:22:33;;;;;;;;;;;20.00;71.70;;;19.32;67.00;96679.88;4291389;33;19912;-86
2022/06/04 02:25:01;;;;;;;;;;;20.00;71.70;;;19.31;67.09;96678.22;4267777;33;19901;-86
2022/06/04 02:27:30;;;;;;;;;;;20.00;71.70;;;19.31;67.17;96676.25;4291574;33;19908;-86
2022/06/04 02:30:00;;;;;;;;;;;20.00;71.70;;;19.30;67.14;96674.59;4267336;33;19928;-86
2022/06/04 02:32:33;;;;;;;;;;;20.00;71.60;;;19.30;66.87;96673.81;4291610;33;20105;-86
2022/06/04 02:35:04;;;;;;;;;;;20.00;71.60;;;19.29;66.90;96681.31;4267656;33;20016;-86
2022/06/04 02:37:39;;;;;;;;;;;20.00;71.60;;;19.29;66.67;96681.31;4267479;33;20213;-86
2022/06/04 02:40:10;;;;;;;;;;;20.00;71.60;;;19.29;66.85;96673.00;4267053;33;19909;-86
2022/06/04 02:42:42;;;;;;;;;;;20.00;71.60;;;19.29;66.92;96673.00;4291441;33;20090;-85
2022/06/04 02:45:14;;;;;;;;;;;20.00;71.50;;;19.30;66.69;96673.81;4267674;33;20243;-86
2022/06/04 02:47:45;;;;;;;;;;;20.00;71.50;;;19.29;67.01;96673.00;4267291;33;19967;-86
2022/06/04 02:50:19;;;;;;;;;;;20.00;71.50;;;19.29;66.59;96675.78;4266981;33;19974;-88
2022/06/04 02:52:48;;;;;;;;;;;20.00;71.50;;;19.29;66.72;96677.72;4267170;33;19909;-87
2022/06/04 02:55:18;;;;;;;;;;;20.00;71.50;;;19.29;66.78;96684.09;4267379;33;19909;-87
2022/06/04 02:57:49;;;;;;;;;;;20.00;71.50;;;19.29;66.81;96672.16;4267250;33;19971;-86
2022/06/04 03:00:22;;;;;;;;;;;20.00;71.40;;;19.29;66.79;96681.31;4266857;33;19901;-87
2022/06/04 03:02:51;;;;;;;;;;;20.00;71.40;;;19.28;66.53;96681.63;4267053;33;19902;-87
2022/06/04 03:05:22;;;;;;;;;;;20.00;71.30;;;19.29;66.60;96688.81;4267098;33;19909;-86
2022/06/04 03:07:54;;;;;;;;;;;20.00;71.30;;;19.29;66.43;96689.66;4266173;33;19902;-87
2022/06/04 03:10:24;;;;;;;;;;;20.00;71.20;;;19.29;66.68;96695.19;4266862;33;19909;-87
2022/06/04 03:12:53;;;;;;;;;;;20.00;71.20;;;19.29;66.67;96691.59;4291229;33;20124;-87
2022/06/04 03:15:23;;;;;;;;;;;20.00;71.20;;;19.30;66.67;96693.22;4267246;33;20130;-87
2022/06/04 03:17:52;;;;;;;;;;;20.00;71.20;;;19.28;66.63;96687.16;4267049;33;19901;-86
2022/06/04 03:20:23;;;;;;;;;;;20.00;71.10;;;19.29;66.36;96689.66;4266614;33;20155;-89
2022/06/04 03:22:52;;;;;;;;;;;20.00;71.10;;;19.29;66.63;96692.44;4266928;33;20600;-87
2022/06/04 03:25:21;;;;;;;;;;;20.00;71.00;;;19.30;66.37;96696.81;4266792;33;19901;-87
2022/06/04 03:27:50;;;;;;;;;;;20.00;71.00;;;19.31;66.23;96698.47;4266708;33;19912;-87
2022/06/04 03:30:19;;;;;;;;;;;20.00;71.00;;;19.32;66.07;96700.09;4290559;33;19901;-86
2022/06/04 03:32:49;;;;;;;;;;;20.00;70.90;;;19.35;66.23;96695.06;4290976;33;19902;-87
2022/06/04 03:35:18;;;;;;;;;;;20.00;70.90;;;19.34;66.41;96690.63;4266860;33;20188;-86
2022/06/04 03:37:46;;;;;;;;;;;20.00;70.90;;;19.36;66.70;96694.75;4266746;33;20017;-86
2022/06/04 03:40:15;;;;;;;;;;;20.10;71.20;;;19.38;66.55;96702.75;4266391;33;20030;-86
2022/06/04 03:42:44;;;;;;;;;;;20.10;71.20;;;19.40;66.51;96694.94;4266643;33;20148;-86
2022/06/04 03:45:13;;;;;;;;;;;20.10;71.20;;;19.39;66.83;96696.06;4266774;33;19977;-86
2022/06/04 03:47:42;;;;;;;;;;;20.10;71.30;;;19.42;66.52;96698.22;4290736;33;20125;-85
2022/06/04 03:50:14;;;;;;;;;;;20.10;71.30;;;19.42;66.61;96698.22;4266258;33;19976;-86
2022/06/04 03:52:43;;;;;;;;;;;20.10;71.30;;;19.41;66.56;96691.03;4266762;33;19909;-86
2022/06/04 03:55:12;;;;;;;;;;;20.20;71.40;;;19.41;66.62;96694.63;4266589;33;19921;-86
2022/06/04 03:57:45;;;;;;;;;;;20.10;71.30;;;19.43;66.70;96685.97;4290799;33;20471;-87
2022/06/04 04:00:20;;;;;;;;;;;20.10;71.30;;;19.42;67.21;96689.91;4237371;33;20024;-85
2022/06/04 04:02:51;;;;;;;;;;;20.10;71.50;;;19.41;67.08;96685.47;4238029;33;19918;-86
2022/06/04 04:05:25;;;;;;;;;;;20.20;71.70;;;19.43;67.05;96689.56;4290831;33;19901;-88
2022/06/04 04:07:54;;;;;;;;;;;20.20;71.70;;;19.45;66.86;96686.47;4291393;33;19988;-86
2022/06/04 04:10:23;;;;;;;;;;;20.20;71.50;;;19.45;66.74;96689.25;4266045;33;19908;-87
2022/06/04 04:12:51;;;;;;;;;;;20.20;71.50;;;19.45;66.84;96684.53;4290608;33;20232;-86
2022/06/04 04:15:20;;;;;;;;;;;20.20;71.60;;;19.45;66.90;96687.31;4290414;33;20019;-86
2022/06/04 04:17:49;;;;;;;;;;;20.20;71.60;;;19.47;66.99;96687.81;4290375;33;20189;-87
2022/06/04 04:20:20;;;;;;;;;;;20.20;71.80;;;19.48;66.99;96685.84;4260872;33;19902;-86
2022/06/04 04:22:50;;;;;;;;;;;20.20;71.80;;;19.50;67.23;96688.28;4261444;33;19917;-86
2022/06/04 04:25:21;;;;;;;;;;;20.20;71.90;;;19.51;67.26;96685.22;4287527;33;19924;-85
2022/06/04 04:27:52;;;;;;;;;;;20.20;71.90;;;19.53;67.51;96685.72;4266170;33;19909;-86
2022/06/04 04:30:22;;;;;;;;;;;20.20;71.90;;;19.52;67.16;96683.25;4265606;33;19909;-86
2022/06/04 04:32:51;;;;;;;;;;;20.20;71.80;;;19.49;66.88;96676.38;4290319;33;19908;-86
2022/06/04 04:35:22;;;;;;;;;;;20.20;71.60;;;19.50;67.23;96678.03;4290192;33;19955;-87
2022/06/04 04:37:52;;;;;;;;;;;20.20;71.90;;;19.52;67.07;96681.31;4290442;33;20053;-85
2022/06/04 04:40:22;;;;;;;;;;;20.20;71.90;;;19.55;67.41;96679.84;4289912;33;20116;-88
2022/06/04 04:42:51;;;;;;;;;;;20.30;72.00;;;19.55;67.46;96677.91;4266161;33;19917;-85
2022/06/04 04:45:21;;;;;;;;;;;20.30;72.00;;;19.59;67.56;96681.66;4290056;33;19974;-89
2022/06/04 04:47:50;;;;;;;;;;;20.30;72.20;;;19.62;67.28;96683.00;4266179;33;19966;-87
2022/06/04 04:50:20;;;;;;;;;;;20.30;72.20;;;19.65;67.48;96679.56;4265645;33;19909;-86
2022/06/04 04:52:51;;;;;;;;;;;20.40;72.10;;;19.69;67.17;96688.06;4266196;33;20010;-87
2022/06/04 04:55:20;;;;;;;;;;;20.40;71.80;;;19.71;66.68;96678.31;4266246;33;20024;-86
2022/06/04 04:57:48;;;;;;;;;;;20.40;71.50;;;19.73;67.27;96672.44;4290291;33;20154;-86
2022/06/04 05:00:19;;;;;;;;;;;20.50;71.90;;;19.77;67.03;96684.53;4265386;33;20061;-86
2022/06/04 05:02:48;;;;;;;;;;;20.50;71.80;;;19.80;67.00;96683.91;4266388;33;19901;-87
2022/06/04 05:05:17;;;;;;;;;;;20.50;71.70;;;19.85;66.90;96682.97;4265907;33;20028;-87
2022/06/04 05:07:45;;;;;;;;;;;20.60;71.60;;;19.85;66.85;96672.66;4290104;33;20164;-87
2022/06/04 05:10:16;;;;;;;;;;;20.60;71.50;;;19.87;66.56;96681.53;4265053;33;19916;-87
2022/06/04 05:12:45;;;;;;;;;;;20.60;71.40;;;19.90;66.65;96675.34;4290184;33;20099;-87
2022/06/04 05:15:13;;;;;;;;;;;20.70;71.40;;;19.91;66.67;96674.19;4279646;33;20379;-87
2022/06/04 05:17:42;;;;;;;;;;;20.70;71.50;;;19.92;66.64;96667.50;4290210;33;20126;-86
2022/06/04 05:20:15;;;;;;;;;;;20.70;71.50;;;19.92;66.93;96678.63;4260437;33;19908;-86
2022/06/04 05:22:43;;;;;;;;;;;20.70;71.50;;;19.93;66.87;96674.69;4261069;33;19902;-84
2022/06/04 05:25:13;;;;;;;;;;;20.70;71.50;;;19.92;66.84;96667.50;4260917;33;20153;-86
2022/06/04 05:27:43;;;;;;;;;;;20.70;71.50;;;19.95;66.88;96666.03;4237421;33;19909;-86
2022/06/04 05:30:13;;;;;;;;;;;20.70;71.50;;;19.93;66.79;96666.38;4260498;33;19927;-86
2022/06/04 05:32:42;;;;;;;;;;;20.70;71.60;;;19.93;66.85;96666.38;4239603;33;20063;-86
2022/06/04 05:35:10;;;;;;;;;;;20.70;71.60;;;19.94;66.74;96661.63;4249806;33;20212;-86
2022/06/04 05:37:39;;;;;;;;;;;20.70;71.60;;;19.94;66.65;96656.06;4268184;33;19902;-85
2022/06/04 05:40:09;;;;;;;;;;;20.70;71.50;;;19.95;66.79;96660.47;4291848;33;20164;-85
2022/06/04 05:42:38;;;;;;;;;;;20.70;72.30;;;19.96;66.93;96651.00;4292241;33;20304;-86
2022/06/04 05:45:10;;;;;;;;;;;20.70;71.50;;;19.97;66.95;96657.38;4267921;33;19901;-85
2022/06/04 05:47:39;;;;;;;;;;;20.70;71.40;;;19.99;66.62;96655.09;4292235;33;19962;-86
2022/06/04 05:50:09;;;;;;;;;;;20.70;71.50;;;20.00;66.72;96653.94;4267549;33;19930;-86
2022/06/04 05:52:37;;;;;;;;;;;20.70;71.30;;;20.03;66.68;96656.09;4267945;33;19902;-86
2022/06/04 05:55:07;;;;;;;;;;;20.70;71.30;;;20.05;66.60;96659.38;4292037;33;19901;-87
2022/06/04 05:57:36;;;;;;;;;;;20.80;71.30;;;20.07;66.76;96662.66;4292111;33;20247;-86
2022/06/04 06:00:08;;;;;;;;;;;20.80;71.20;;;20.10;66.62;96661.19;4267314;33;19913;-86
2022/06/04 06:02:40;;;;;;;;;;;20.80;71.10;;;20.12;66.54;96659.72;4292151;33;20232;-86
2022/06/04 06:05:10;;;;;;;;;;;20.80;71.00;;;20.14;66.46;96657.44;4293153;33;20056;-86
2022/06/04 06:07:39;;;;;;;;;;;20.90;71.00;;;20.16;66.28;96655.16;4291770;33;19901;-86
2022/06/04 06:10:08;;;;;;;;;;;20.90;71.00;;;20.16;66.57;96652.38;4267391;33;19901;-85
2022/06/04 06:12:37;;;;;;;;;;;20.90;71.00;;;20.18;66.29;96657.59;4267799;33;20198;-86
2022/06/04 06:15:10;;;;;;;;;;;20.90;70.90;;;20.19;66.09;96651.75;4291854;33;20027;-86
2022/06/04 06:17:40;;;;;;;;;;;20.90;70.90;;;20.19;66.34;96648.97;4291933;33;20223;-86
2022/06/04 06:20:10;;;;;;;;;;;20.90;70.90;;;20.20;66.39;96645.00;4291348;33;20163;-87
2022/06/04 06:22:39;;;;;;;;;;;20.90;70.90;;;20.21;66.33;96643.06;4291864;32;19901;-87
2022/06/04 06:25:09;;;;;;;;;;;20.90;70.90;;;20.22;66.36;96647.50;4291551;32;20124;-86
2022/06/04 06:27:40;;;;;;;;;;;21.00;70.90;;;20.22;66.41;96636.38;4262770;33;19932;-87
2022/06/04 06:30:13;;;;;;;;;;;21.00;70.80;;;20.26;66.06;96636.53;4262179;33;20107;-88
2022/06/04 06:32:42;;;;;;;;;;;21.00;70.90;;;20.25;66.40;96632.94;4238998;33;19952;-87
2022/06/04 06:35:11;;;;;;;;;;;21.00;70.80;;;20.27;66.43;96632.63;4262652;33;20175;-87
2022/06/04 06:37:40;;;;;;;;;;;21.00;70.80;;;20.28;66.09;96628.69;4290606;33;19908;-87
2022/06/04 06:40:10;;;;;;;;;;;21.00;70.80;;;20.28;66.34;96620.34;4291095;33;20171;-85
2022/06/04 06:42:40;;;;;;;;;;;21.00;70.80;;;20.31;66.16;96623.31;4267440;33;20236;-86
2022/06/04 06:45:12;;;;;;;;;;;21.00;70.80;;;20.33;66.07;96618.25;4267341;33;19933;-86
2022/06/04 06:47:43;;;;;;;;;;;21.10;70.80;;;20.35;66.16;96623.47;4267298;33;19908;-87
2022/06/04 06:50:14;;;;;;;;;;;21.10;70.70;;;20.36;66.11;96617.59;4290867;33;19905;-87
2022/06/04 06:52:51;;;;;;;;;;;21.10;70.70;;;20.38;66.20;96611.69;4267082;33;19909;-85
2022/06/04 06:55:20;;;;;;;;;;;21.10;70.70;;;20.41;66.13;96611.06;4267205;33;20029;-86
2022/06/04 06:57:49;;;;;;;;;;;21.10;70.70;;;20.40;65.75;96614.97;4267238;33;19909;-86
2022/06/04 07:00:20;;;;;;;;;;;21.10;70.60;;;20.46;65.89;96612.88;4266808;33;20234;-87
2022/06/04 07:02:49;;;;;;;;;;;21.10;70.60;;;20.47;65.81;96603.38;4267295;33;20006;-86
2022/06/04 07:05:18;;;;;;;;;;;21.10;70.50;;;20.49;66.10;96601.09;4292188;33;20236;-87
2022/06/04 07:07:47;;;;;;;;;;;21.20;70.40;;;20.50;66.16;96603.53;4286278;33;20147;-87
2022/06/04 07:10:17;;;;;;;;;;;21.20;70.40;;;20.53;65.76;96602.06;4238101;33;19901;-87
2022/06/04 07:12:49;;;;;;;;;;;21.20;70.30;;;20.55;65.79;96597.00;4238559;33;19909;-88
2022/06/04 07:15:19;;;;;;;;;;;21.20;70.20;;;20.57;65.52;96603.06;4238191;33;19901;-87
2022/06/04 07:17:48;;;;;;;;;;;21.30;70.30;;;20.58;65.53;96593.56;4264374;33;19901;-87
2022/06/04 07:20:20;;;;;;;;;;;21.30;70.30;;;20.59;65.46;96597.19;4290689;33;20248;-85
2022/06/04 07:22:50;;;;;;;;;;;21.30;70.20;;;20.61;65.64;96594.88;4291189;33;20467;-86
2022/06/04 07:25:21;;;;;;;;;;;21.30;70.20;;;20.61;65.68;96592.09;4266906;33;19909;-86
2022/06/04 07:27:52;;;;;;;;;;;21.30;70.10;;;20.60;65.51;96590.44;4291282;33;19909;-87
2022/06/04 07:30:23;;;;;;;;;;;21.30;70.10;;;20.55;65.64;96583.09;4266389;33;19951;-86
2022/06/04 07:32:53;;;;;;;;;;;21.30;70.20;;;20.54;65.72;96587.84;4291097;33;19902;-86
2022/06/04 07:35:22;;;;;;;;;;;21.20;70.10;;;20.52;65.68;96587.34;4266865;33;19951;-86
2022/06/04 07:37:51;;;;;;;;;;;21.20;70.20;;;20.48;65.99;96585.56;4266954;33;19901;-86
2022/06/04 07:40:22;;;;;;;;;;;21.20;70.40;;;20.49;66.04;96596.34;4290701;33;19902;-87
2022/06/04 07:42:51;;;;;;;;;;;21.20;70.60;;;20.47;65.90;96592.25;4266876;33;19901;-86
2022/06/04 07:45:22;;;;;;;;;;;21.20;70.60;;;20.44;66.02;96588.16;4267044;33;20213;-86
2022/06/04 07:47:51;;;;;;;;;;;21.10;70.70;;;20.44;66.26;96588.16;4266785;33;19909;-86
2022/06/04 07:50:20;;;;;;;;;;;21.10;70.80;;;20.44;66.07;96581.78;4290605;33;20016;-88
2022/06/04 07:52:49;;;;;;;;;;;21.10;70.90;;;20.43;66.22;96574.56;4266260;33;20177;-87
2022/06/04 07:55:17;;;;;;;;;;;21.10;70.90;;;20.44;66.60;96584.56;4266619;33;20434;-88
2022/06/04 07:57:48;;;;;;;;;;;21.10;71.00;;;20.47;66.33;96573.59;4266689;33;20217;-86
2022/06/04 08:00:19;;;;;;;;;;;21.10;71.20;;;20.49;66.36;96581.63;4291377;33;20119;-86
2022/06/04 08:02:51;;;;;;;;;;;21.20;71.10;;;20.51;66.37;96569.03;4266667;33;20056;-86
2022/06/04 08:05:21;;;;;;;;;;;21.20;71.00;;;20.53;66.39;96572.31;4290763;33;20054;-88
2022/06/04 08:08:20;;;;;;;;;;;21.20;70.90;;;20.56;66.24;96575.59;4266588;33;19960;-88
2022/06/04 08:14:22;;;;;;;;;;;21.30;70.90;;;20.57;66.10;96566.91;4265485;33;20382;-87
2022/06/04 08:16:52;;;;;;;;;;;21.30;70.90;;;20.57;66.23;96560.53;4266399;33;20079;-87
2022/06/04 08:19:24;;;;;;;;;;;21.20;70.70;;;20.56;66.14;96559.69;4291838;33;20421;-86
2022/06/04 08:21:52;;;;;;;;;;;21.30;70.80;;;20.56;66.15;96562.47;4265974;33;19984;-86
2022/06/04 08:24:21;;;;;;;;;;;21.30;70.90;;;20.57;66.12;96568.88;4266537;33;20371;-86
2022/06/04 08:26:53;;;;;;;;;;;21.30;70.80;;;20.57;66.07;96571.66;4290367;33;19908;-86
2022/06/04 08:29:24;;;;;;;;;;;21.30;70.80;;;20.57;66.17;96563.31;4266624;33;19908;-86
2022/06/04 08:31:53;;;;;;;;;;;21.30;70.80;;;20.55;66.25;96560.84;4266123;33;19908;-87
2022/06/04 08:34:23;;;;;;;;;;;21.20;70.80;;;20.54;66.17;96556.41;4266535;33;19901;-88
2022/06/04 08:36:52;;;;;;;;;;;21.20;70.80;;;20.53;66.13;96555.63;4290381;33;19901;-87
2022/06/04 08:39:21;;;;;;;;;;;21.30;70.90;;;20.52;66.36;96567.88;4290457;33;20259;-87
2022/06/04 08:42:05;;;;;;;;;;;21.20;70.90;;;20.52;66.61;96567.06;4290152;33;20245;-86
2022/06/04 08:44:35;;;;;;;;;;;21.20;71.00;;;20.50;66.62;96564.59;4290429;33;19902;-87
2022/06/04 08:47:11;;;;;;;;;;;21.20;71.00;;;20.49;66.63;96568.53;4266100;33;20039;-87
2022/06/04 08:49:44;;;;;;;;;;;21.20;71.10;;;20.50;66.51;96563.81;4290646;33;20096;-87
2022/06/04 08:52:16;;;;;;;;;;;21.20;71.20;;;20.50;66.81;96555.47;4290004;33;19996;-86
2022/06/04 08:57:37;;;;;;;;;;;21.20;71.30;;;20.53;66.50;96552.00;4290298;33;19901;-87
2022/06/04 09:00:14;;;;;;;;;;;21.20;71.20;;;20.56;66.58;96548.56;4265909;33;19902;-87
2022/06/04 09:03:11;;;;;;;;;;;21.30;71.30;;;20.58;66.45;96543.50;4266174;33;20055;-86
2022/06/04 09:06:03;;;;;;;;;;;21.30;71.20;;;20.59;66.53;96545.13;4234732;33;20154;-87
2022/06/04 09:08:42;;;;;;;;;;;21.30;71.10;;;20.59;66.36;96544.34;4239967;33;20243;-87
2022/06/04 09:11:14;;;;;;;;;;;21.30;71.00;;;20.63;66.48;96545.28;4287481;33;20221;-86
2022/06/04 09:13:48;;;;;;;;;;;21.30;71.10;;;20.62;66.32;96543.66;4239981;33;19902;-87
2022/06/04 09:16:25;;;;;;;;;;;21.30;70.90;;;20.62;66.22;96535.31;4263752;33;19902;-87
2022/06/04 09:19:02;;;;;;;;;;;21.40;70.90;;;20.62;65.95;96533.38;4240141;33;19901;-87
2022/06/04 09:21:36;;;;;;;;;;;21.30;71.00;;;20.64;66.54;96530.25;4239595;33;20213;-87
2022/06/04 09:24:05;;;;;;;;;;;21.30;70.90;;;20.64;66.46;96530.25;4239852;33;19902;-87
2022/06/04 09:26:40;;;;;;;;;;;21.30;71.10;;;20.65;66.48;96520.75;4239883;33;20133;-87
2022/06/04 09:29:54;;;;;;;;;;;21.40;71.00;;;20.64;66.36;96510.78;4264778;33;20156;-87
2022/06/04 09:32:44;;;;;;;;;;;21.40;70.90;;;20.65;66.47;96521.59;4239884;33;20021;-86
2022/06/04 09:35:16;;;;;;;;;;;21.40;71.00;;;20.63;66.45;96514.69;4239785;33;19902;-86
2022/06/04 09:37:48;;;;;;;;;;;21.40;71.00;;;20.64;66.56;96516.34;4263632;33;20245;-86
2022/06/04 09:40:23;;;;;;;;;;;21.40;71.10;;;20.63;66.39;96517.47;4239398;33;19901;-87
2022/06/04 09:42:52;;;;;;;;;;;21.30;71.00;;;20.62;66.57;96513.06;4263608;33;20015;-87
2022/06/04 09:45:26;;;;;;;;;;;21.40;71.10;;;20.62;66.42;96507.50;4263450;33;19902;-88
2022/06/04 09:47:56;;;;;;;;;;;21.40;71.10;;;20.62;66.51;96511.13;4263469;33;20096;-89
2022/06/04 09:50:28;;;;;;;;;;;21.40;71.20;;;20.62;66.41;96505.56;4263041;33;19957;-87
2022/06/04 09:53:19;;;;;;;;;;;21.40;71.20;;;20.62;66.70;96504.72;4263238;33;19925;-88
2022/06/04 09:56:09;;;;;;;;;;;21.40;71.30;;;20.64;66.57;96508.00;4265296;33;20103;-87
2022/06/04 09:58:39;;;;;;;;;;;21.40;71.20;;;20.65;66.59;96495.72;4268065;33;19924;-88
2022/06/04 10:01:10;;;;;;;;;;;21.40;71.20;;;20.64;66.52;96491.31;4292769;33;19909;-88
2022/06/04 10:03:40;;;;;;;;;;;21.40;71.20;;;20.65;66.38;96485.44;4268051;33;20151;-88
2022/06/04 10:06:24;;;;;;;;;;;21.40;71.20;;;20.64;66.48;96485.75;4292189;33;19908;-88
2022/06/04 10:11:49;;;;;;;;;;;21.40;71.20;;;20.64;66.80;96474.63;4267395;33;19901;-87
2022/06/04 10:14:28;;;;;;;;;;;21.40;71.30;;;20.64;66.62;96474.63;4268084;33;19901;-88
2022/06/04 10:16:57;;;;;;;;;;;21.40;71.30;;;20.63;66.70;96478.53;4267530;33;20082;-88
2022/06/04 10:19:30;;;;;;;;;;;21.40;71.30;;;20.63;66.79;96472.97;4292315;33;19909;-87
2022/06/04 10:22:28;;;;;;;;;;;21.40;71.40;;;20.61;66.93;96470.53;4283656;33;20231;-87
2022/06/04 10:25:03;;;;;;;;;;;21.30;71.50;;;20.59;66.92;96467.25;4267934;33;19901;-88
2022/06/04 10:27:43;;;;;;;;;;;21.30;71.40;;;20.59;66.99;96469.25;4267781;33;19940;-87
2022/06/04 10:30:40;;;;;;;;;;;21.30;71.50;;;20.61;67.03;96469.69;4291566;33;19901;-87
2022/06/04 10:33:39;;;;;;;;;;;21.30;71.50;;;20.57;66.89;96461.22;4285081;33;20181;-88
2022/06/04 10:39:59;;;;;;;;;;;21.30;71.60;;;20.58;66.91;96462.03;4239461;33;20154;-87
2022/06/04 10:47:16;;;;;;;;;;;21.30;71.80;;;20.58;67.13;96467.59;4160857;33;20155;-88
2022/06/04 10:50:30;;;;;;;;;;;21.30;71.80;;;20.57;67.05;96469.56;4245205;33;20026;-88
2022/06/04 10:53:07;;;;;;;;;;;21.30;71.80;;;20.57;66.99;96468.75;4233572;33;19902;-88
2022/06/04 10:55:45;;;;;;;;;;;21.30;71.90;;;20.58;67.05;96473.16;4291483;33;19901;-88
2022/06/04 10:58:36;;;;;;;;;;;21.30;71.80;;;20.57;67.19;96461.22;4291500;33;20158;-88
2022/06/04 11:01:46;;;;;;;;;;;21.30;71.90;;;20.57;67.18;96464.00;4267156;33;20011;-88
2022/06/04 11:04:34;;;;;;;;;;;21.30;71.90;;;20.58;67.21;96456.47;4267339;33;19915;-88
2022/06/04 11:07:57;;;;;;;;;;;21.30;71.90;;;20.58;67.03;96450.91;4248152;33;20245;-88
2022/06/04 11:10:28;;;;;;;;;;;21.30;71.90;;;20.59;67.10;96444.22;4219064;33;19909;-88
2022/06/04 11:13:04;;;;;;;;;;;21.30;71.90;;;20.58;66.99;96443.38;4266794;33;20089;-88
2022/06/04 11:15:36;;;;;;;;;;;21.30;71.70;;;20.57;67.35;96430.59;4291101;33;20104;-87
2022/06/04 11:18:12;;;;;;;;;;;21.30;71.90;;;20.60;67.06;96440.25;4267259;33;20388;-88
2022/06/04 11:20:50;;;;;;;;;;;21.30;71.90;;;20.58;67.27;96437.00;4266852;33;20126;-87
2022/06/04 11:23:35;;;;;;;;;;;21.30;71.90;;;20.56;67.16;96433.72;4266787;33;20212;-87
2022/06/04 11:26:14;;;;;;;;;;;21.30;71.90;;;20.58;67.19;96431.44;4267352;33;20333;-87
2022/06/04 11:28:43;;;;;;;;;;;21.30;71.90;;;20.57;67.29;96435.38;4266346;33;19901;-87
2022/06/04 11:32:17;;;;;;;;;;;21.30;72.00;;;20.56;67.12;96433.72;4266838;33;19901;-88
2022/06/04 11:35:34;;;;;;;;;;;21.30;71.90;;;20.59;67.12;96422.75;4281196;33;19908;-87
2022/06/04 11:41:42;;;;;;;;;;;21.30;71.80;;;20.64;66.97;96418.97;4259915;33;19909;-87
2022/06/04 11:47:48;;;;;;;;;;;21.40;71.70;;;20.64;67.31;96435.66;4222221;33;19906;-87
2022/06/04 11:50:19;;;;;;;;;;;21.40;71.80;;;20.63;67.06;96425.69;4237852;33;20024;-87
2022/06/04 11:52:56;;;;;;;;;;;21.40;71.80;;;20.62;67.06;96432.41;4261858;33;19992;-87
2022/06/04 11:55:31;;;;;;;;;;;21.30;72.70;;;20.60;67.10;96424.41;4238155;33;19902;-87
2022/06/04 11:58:35;;;;;;;;;;;21.30;71.90;;;20.61;67.14;96427.97;4238407;33;20392;-88
2022/06/04 12:01:07;;;;;;;;;;;21.30;71.90;;;20.61;67.31;96430.75;4256470;33;19916;-87
2022/06/04 12:03:38;;;;;;;;;;;21.30;71.90;;;20.61;66.90;96427.97;4290951;33;20129;-88
2022/06/04 12:06:11;;;;;;;;;;;21.30;71.90;;;20.61;67.33;96417.69;4290926;33;19996;-88
2022/06/04 12:08:42;;;;;;;;;;;21.30;72.80;;;20.61;67.34;96419.63;4266625;33;19901;-89
2022/06/04 12:11:22;;;;;;;;;;;21.30;71.90;;;20.60;67.38;96412.44;4266152;33;19909;-88
2022/06/04 12:13:58;;;;;;;;;;;21.40;71.90;;;20.62;67.37;96405.41;4290830;33;20232;-88
2022/06/04 12:16:30;;;;;;;;;;;21.30;71.90;;;20.62;67.23;96410.97;4266322;33;19901;-88
2022/06/04 12:19:01;;;;;;;;;;;21.40;71.90;;;20.62;67.33;96402.63;4290696;33;20243;-88
2022/06/04 12:24:58;;;;;;;;;;;21.40;71.90;;;20.64;67.18;96405.06;4266601;33;19901;-88